Time;durP1;ratioP1;P1;durP2;ratioP2;P2;SDS_P1;SDS_P2;PMS_P1;PMS_P2;Temp;Humidity;BMP_temperature;BMP_pressure;BME280_temperature;BME280_humidity;BME280_pressure;Samples;Min_cycle;Max_cycle;Signal;HPM_P1;HPM_P2
2023/01/01 00:03:14;;;;;;;12.57;6.55;;;;;;;11.76;53.47;99792.28;10342403;28;20049;-59
2023/01/01 00:08:15;;;;;;;9.35;5.97;;;;;;;11.62;53.83;99779.25;10344302;28;20052;-59
2023/01/01 00:13:17;;;;;;;7.72;5.50;;;;;;;11.48;54.29;99786.38;10342014;28;20414;-59
2023/01/01 00:18:18;;;;;;;7.60;5.03;;;;;;;11.39;54.49;99786.94;10344691;28;20076;-59
2023/01/01 00:23:20;;;;;;;10.55;5.03;;;;;;;11.37;54.78;99783.59;10342863;28;20052;-59
2023/01/01 00:28:22;;;;;;;9.55;4.30;;;;;;;11.42;54.69;99792.81;10338976;28;20506;-59
2023/01/01 00:33:23;;;;;;;9.30;4.38;;;;;;;11.44;54.74;99784.88;10343233;28;20049;-59
2023/01/01 00:38:25;;;;;;;6.65;4.00;;;;;;;11.41;54.79;99772.81;10342037;28;20056;-59
2023/01/01 00:43:27;;;;;;;6.43;3.90;;;;;;;11.32;55.17;99769.03;10344908;28;20289;-59
2023/01/01 00:48:28;;;;;;;7.28;4.22;;;;;;;11.26;55.34;99786.91;10342435;28;20061;-59
2023/01/01 00:53:30;;;;;;;7.35;3.50;;;;;;;11.34;55.14;99778.56;10344100;28;20422;-59
2023/01/01 00:58:32;;;;;;;10.25;3.40;;;;;;;11.30;54.84;99784.00;10342583;28;20310;-59
2023/01/01 01:03:33;;;;;;;6.55;2.88;;;;;;;11.35;54.81;99778.47;10341539;28;20056;-59
2023/01/01 01:08:37;;;;;;;7.07;3.17;;;;;;;11.43;54.57;99785.81;10341382;28;20039;-59
2023/01/01 01:13:40;;;;;;;7.07;3.13;;;;;;;11.36;54.86;99784.56;10342009;28;20132;-59
2023/01/01 01:18:42;;;;;;;6.78;2.97;;;;;;;11.35;54.90;99790.72;10342124;28;20638;-59
2023/01/01 01:23:44;;;;;;;5.53;2.90;;;;;;;11.44;55.00;99784.88;10341617;28;20042;-59
2023/01/01 01:28:46;;;;;;;4.55;2.92;;;;;;;11.44;55.15;99784.88;10340411;28;20046;-59
2023/01/01 01:33:50;;;;;;;4.57;2.85;;;;;;;11.50;55.38;99792.34;10342447;28;20068;-59
2023/01/01 01:38:52;;;;;;;7.95;3.50;;;;;;;11.50;55.40;99802.81;10339722;28;20049;-59
2023/01/01 01:44:01;;;;;;;7.43;3.38;;;;;;;11.49;55.54;99816.84;10342181;28;20107;-59
2023/01/01 01:49:14;;;;;;;5.75;3.15;;;;;;;11.46;56.09;99815.25;10348015;28;20249;-59
2023/01/01 01:54:21;;;;;;;6.68;4.28;;;;;;;11.44;56.19;99824.16;10339758;28;20049;-59
2023/01/01 01:59:25;;;;;;;9.65;4.55;;;;;;;11.52;56.36;99840.22;10355841;28;20541;-59
2023/01/01 02:04:28;;;;;;;7.72;4.80;;;;;;;11.52;56.45;99821.88;10347789;28;20537;-59
2023/01/01 02:09:29;;;;;;;9.45;5.40;;;;;;;11.50;56.56;99819.34;10347841;28;20217;-59
2023/01/01 02:14:32;;;;;;;11.45;6.32;;;;;;;11.52;56.74;99808.78;10351513;28;20498;-59
2023/01/01 02:20:03;;;;;;;10.77;6.85;;;;;;;11.61;56.72;99818.66;10348037;28;20046;-59
2023/01/01 02:25:23;;;;;;;10.73;7.13;;;;;;;11.64;56.87;99821.09;10360585;28;20410;-59
2023/01/01 02:30:28;;;;;;;11.98;7.00;;;;;;;11.70;56.79;99818.06;10347040;28;20046;-59
2023/01/01 02:35:35;;;;;;;11.98;7.50;;;;;;;11.68;56.60;99822.56;10348577;28;20052;-59
2023/01/01 02:40:44;;;;;;;12.52;7.93;;;;;;;11.61;57.07;99835.22;10348115;28;20042;-59
2023/01/01 02:45:46;;;;;;;14.77;7.97;;;;;;;11.66;56.78;99834.91;10346475;28;20459;-59
2023/01/01 02:50:48;;;;;;;14.27;8.45;;;;;;;11.70;56.65;99821.50;10345627;28;20050;-59
2023/01/01 02:56:01;;;;;;;12.65;7.68;;;;;;;11.71;56.60;99822.34;10346618;28;20581;-59
2023/01/01 03:01:27;;;;;;;12.63;7.53;;;;;;;11.61;56.65;99819.50;10345783;28;20209;-59
2023/01/01 03:06:49;;;;;;;15.25;7.85;;;;;;;11.59;56.83;99808.28;10351658;28;20050;-59
2023/01/01 03:12:16;;;;;;;12.30;7.85;;;;;;;11.51;56.99;99835.91;10354906;28;20054;-59
2023/01/01 03:17:32;;;;;;;12.77;8.63;;;;;;;11.46;57.06;99846.66;10354636;28;20490;-59
2023/01/01 03:22:37;;;;;;;11.45;6.93;;;;;;;11.51;56.98;99830.66;10356310;28;20054;-59
2023/01/01 03:27:45;;;;;;;11.32;7.15;;;;;;;11.45;57.04;99839.78;10354686;28;20081;-59
2023/01/01 03:33:00;;;;;;;9.98;6.28;;;;;;;11.48;56.92;99847.41;10353744;28;20041;-58
2023/01/01 03:38:07;;;;;;;10.55;6.10;;;;;;;11.54;56.68;99835.72;10351863;28;20138;-59
2023/01/01 03:43:15;;;;;;;9.90;5.72;;;;;;;11.53;56.59;99845.34;10351734;28;20145;-58
2023/01/01 03:48:17;;;;;;;11.32;5.90;;;;;;;11.54;56.51;99852.25;10352493;28;20049;-59
2023/01/01 03:53:41;;;;;;;9.25;5.50;;;;;;;11.44;56.70;99847.72;10351803;28;20053;-59
2023/01/01 03:58:57;;;;;;;9.63;5.65;;;;;;;11.58;56.42;99858.16;10351929;28;20414;-59
2023/01/01 04:04:02;;;;;;;9.27;5.10;;;;;;;11.66;56.26;99861.13;10348888;28;20050;-59
2023/01/01 04:09:27;;;;;;;9.45;4.60;;;;;;;11.66;56.28;99850.63;10344305;28;20046;-59
2023/01/01 04:14:36;;;;;;;8.90;4.85;;;;;;;11.67;56.09;99849.69;10343488;28;20069;-59
2023/01/01 04:19:38;;;;;;;8.00;4.03;;;;;;;11.65;56.07;99855.03;10344004;28;20050;-58
2023/01/01 04:24:39;;;;;;;7.72;3.83;;;;;;;11.63;56.10;99869.16;10344325;28;20046;-59
2023/01/01 04:29:41;;;;;;;7.07;3.55;;;;;;;11.69;55.92;99855.66;10342056;28;20056;-59
2023/01/01 04:34:43;;;;;;;5.85;3.10;;;;;;;11.66;56.02;99858.50;10345087;28;20049;-59
2023/01/01 04:39:47;;;;;;;6.55;3.20;;;;;;;11.64;56.20;99870.84;10341952;28;20066;-59
2023/01/01 04:44:49;;;;;;;8.18;3.13;;;;;;;11.66;56.08;99871.59;10343427;28;20042;-59
2023/01/01 04:49:51;;;;;;;7.88;2.95;;;;;;;11.67;56.14;99865.41;10325718;28;20042;-59
2023/01/01 04:54:53;;;;;;;6.55;2.90;;;;;;;11.63;55.77;99862.16;10344269;28;20060;-59
2023/01/01 04:59:54;;;;;;;7.43;2.95;;;;;;;11.69;56.16;99866.13;10340698;28;20064;-59
2023/01/01 05:04:56;;;;;;;6.80;2.90;;;;;;;11.73;55.74;99878.09;10341000;28;20057;-59
2023/01/01 05:09:57;;;;;;;6.07;2.88;;;;;;;11.65;55.79;99872.53;10341208;28;20241;-59
2023/01/01 05:14:59;;;;;;;6.45;2.42;;;;;;;11.67;55.98;99871.47;10343190;28;20483;-59
2023/01/01 05:20:01;;;;;;;6.55;2.72;;;;;;;11.61;56.09;99884.97;10344628;28;20054;-59
2023/01/01 05:25:03;;;;;;;8.15;2.80;;;;;;;11.68;56.45;99888.88;10343292;28;20038;-59
2023/01/01 05:30:06;;;;;;;8.02;2.40;;;;;;;11.71;56.00;99885.22;10344877;28;20042;-59
2023/01/01 05:35:07;;;;;;;5.65;2.63;;;;;;;11.80;55.98;99888.09;10346622;28;20056;-59
2023/01/01 05:40:10;;;;;;;5.82;2.30;;;;;;;11.82;56.02;99882.75;10350984;28;20042;-59
2023/01/01 05:45:11;;;;;;;5.38;2.50;;;;;;;11.87;56.14;99885.88;10349579;28;20057;-58
2023/01/01 05:50:13;;;;;;;7.45;2.40;;;;;;;11.88;55.87;99893.69;10349986;28;20054;-59
2023/01/01 05:55:15;;;;;;;4.97;2.35;;;;;;;11.89;55.76;99884.00;10347182;28;20046;-59
2023/01/01 06:00:16;;;;;;;6.28;2.40;;;;;;;11.89;55.81;99895.34;10349144;28;20652;-59
2023/01/01 06:05:18;;;;;;;6.35;2.72;;;;;;;11.90;55.59;99911.91;10347242;28;20149;-59
2023/01/01 06:10:19;;;;;;;5.25;2.35;;;;;;;11.89;55.76;99908.44;10349583;28;20520;-59
2023/01/01 06:15:21;;;;;;;7.30;2.53;;;;;;;11.89;55.72;99905.81;10347819;28;20090;-59
2023/01/01 06:20:23;;;;;;;8.45;2.42;;;;;;;11.91;55.67;99916.19;10345939;28;20053;-59
2023/01/01 06:25:24;;;;;;;5.90;2.50;;;;;;;11.87;55.63;99894.59;10346892;28;20532;-59
2023/01/01 06:30:26;;;;;;;8.93;2.58;;;;;;;11.83;55.24;99915.84;10347778;28;20050;-59
2023/01/01 06:35:28;;;;;;;8.02;2.80;;;;;;;11.89;55.48;99933.81;10347708;28;20053;-59
2023/01/01 06:40:29;;;;;;;5.43;2.30;;;;;;;11.93;55.91;99951.00;10344956;28;20042;-59
2023/01/01 06:45:31;;;;;;;8.52;2.22;;;;;;;12.01;55.13;99956.59;10347621;28;20056;-59
2023/01/01 06:50:33;;;;;;;6.53;2.30;;;;;;;12.04;55.15;99966.88;10346722;28;20478;-59
2023/01/01 06:55:37;;;;;;;8.40;2.65;;;;;;;12.11;55.14;99979.50;10346618;28;20305;-59
2023/01/01 07:00:38;;;;;;;9.65;2.78;;;;;;;12.19;54.99;99975.53;10347284;28;20121;-59
2023/01/01 07:05:40;;;;;;;5.70;2.42;;;;;;;12.17;54.70;99974.78;10345788;28;20156;-59
2023/01/01 07:10:41;;;;;;;8.88;2.75;;;;;;;12.18;54.39;99981.72;10346061;28;20049;-59
2023/01/01 07:15:43;;;;;;;7.78;2.65;;;;;;;12.24;54.83;99999.66;10345413;28;20058;-60
2023/01/01 07:21:05;;;;;;;6.43;2.72;;;;;;;12.26;54.42;100009.13;10348008;28;20139;-60
2023/01/01 07:26:07;;;;;;;8.15;2.40;;;;;;;12.37;54.22;99996.19;10345944;28;20410;-60
2023/01/01 07:31:09;;;;;;;6.45;2.83;;;;;;;12.43;54.20;100005.41;10345612;28;20052;-60
2023/01/01 07:36:11;;;;;;;9.00;2.47;;;;;;;12.48;54.02;100006.78;10344743;28;20060;-59
2023/01/01 07:41:13;;;;;;;6.53;2.22;;;;;;;12.59;53.85;99998.22;10346018;28;20486;-60
2023/01/01 07:46:17;;;;;;;5.82;2.30;;;;;;;12.61;53.87;100012.06;10341904;28;20418;-60
2023/01/01 07:51:19;;;;;;;5.90;2.50;;;;;;;12.53;53.97;100017.84;10346277;28;20085;-60
2023/01/01 07:56:21;;;;;;;10.48;3.08;;;;;;;12.47;53.99;100020.00;10343585;28;20050;-58
2023/01/01 08:01:23;;;;;;;6.65;2.40;;;;;;;12.40;53.94;100023.97;10345054;28;20076;-58
2023/01/01 08:06:24;;;;;;;7.57;2.45;;;;;;;12.44;54.26;100034.16;10342246;28;20869;-60
2023/01/01 08:11:27;;;;;;;8.98;2.40;;;;;;;12.50;54.15;100018.03;10344000;28;20045;-60
2023/01/01 08:16:29;;;;;;;9.00;2.90;;;;;;;12.55;54.11;100013.31;10343157;28;20061;-60
2023/01/01 08:21:31;;;;;;;7.10;2.35;;;;;;;12.70;53.76;100027.22;10344083;28;20060;-60
2023/01/01 08:26:34;;;;;;;8.82;2.40;;;;;;;12.77;53.47;100046.84;10343355;28;20406;-59
2023/01/01 08:31:36;;;;;;;8.30;2.83;;;;;;;12.77;53.65;100039.81;10343589;28;20042;-59
2023/01/01 08:36:41;;;;;;;5.63;2.38;;;;;;;12.84;53.45;100040.25;10344779;28;20054;-59
2023/01/01 08:41:43;;;;;;;7.63;2.40;;;;;;;12.90;53.48;100045.09;10345115;28;20060;-59
2023/01/01 08:46:45;;;;;;;9.65;2.50;;;;;;;13.05;53.28;100051.09;10342944;28;20050;-59
2023/01/01 08:51:46;;;;;;;8.88;2.53;;;;;;;13.09;53.09;100068.31;10343373;28;20652;-59
2023/01/01 08:56:48;;;;;;;6.75;2.40;;;;;;;13.14;53.13;100074.06;10340079;28;20077;-58
2023/01/01 09:01:50;;;;;;;8.00;2.70;;;;;;;13.16;53.09;100065.16;10341238;28;20053;-59
2023/01/01 09:06:52;;;;;;;7.45;2.40;;;;;;;13.21;52.95;100049.91;10340904;28;20046;-59
2023/01/01 09:11:57;;;;;;;8.18;2.63;;;;;;;13.35;52.51;100083.13;10341372;28;20050;-59
2023/01/01 09:16:59;;;;;;;7.20;2.30;;;;;;;13.32;52.48;100073.66;10343223;28;20065;-59
2023/01/01 09:22:01;;;;;;;7.32;2.40;;;;;;;13.43;52.56;100078.22;10344848;28;20053;-60
2023/01/01 09:27:03;;;;;;;7.60;2.83;;;;;;;13.45;52.51;100092.09;10336528;28;20061;-60
2023/01/01 09:32:04;;;;;;;8.70;2.65;;;;;;;13.54;52.12;100086.19;10340978;28;20612;-60
2023/01/01 09:37:06;;;;;;;7.75;2.65;;;;;;;13.64;51.88;100076.69;10333052;28;20057;-59
2023/01/01 09:42:10;;;;;;;7.75;2.78;;;;;;;13.69;51.95;100095.63;10337814;28;20398;-60
2023/01/01 09:47:29;;;;;;;111.63;73.90;;;;;;;13.69;51.67;100095.63;10335784;28;20054;-59
2023/01/01 09:52:49;;;;;;;6.80;3.47;;;;;;;13.68;51.59;100105.31;10334057;28;20051;-60
2023/01/01 09:57:51;;;;;;;8.18;2.90;;;;;;;13.85;51.88;100117.28;10335372;28;20056;-60
2023/01/01 10:02:59;;;;;;;9.45;2.83;;;;;;;13.88;51.78;100121.47;10339204;28;20049;-59
2023/01/01 10:08:21;;;;;;;11.15;3.70;;;;;;;13.79;51.75;100133.47;10337851;28;20478;-60
2023/01/01 10:13:31;;;;;;;6.18;2.40;;;;;;;13.87;51.72;100125.88;10341520;28;20046;-60
2023/01/01 10:18:37;;;;;;;27.05;3.10;;;;;;;13.97;51.59;100105.88;10331565;28;20054;-60
2023/01/01 10:23:58;;;;;;;9.23;2.50;;;;;;;13.93;51.50;100109.69;10338875;28;20060;-60
2023/01/01 10:29:08;;;;;;;7.90;2.72;;;;;;;13.97;51.80;100107.66;10343270;28;20056;-60
2023/01/01 10:34:15;;;;;;;10.55;2.75;;;;;;;13.87;52.07;100125.03;10343302;28;20064;-59
2023/01/01 10:39:17;;;;;;;11.23;3.03;;;;;;;13.91;51.98;100121.25;10334946;28;20387;-59
2023/01/01 10:44:27;;;;;;;10.80;2.53;;;;;;;13.96;51.87;100116.53;10341622;28;20309;-60
2023/01/01 10:49:29;;;;;;;33.45;4.95;;;;;;;14.03;51.74;100120.38;10336242;28;20061;-59
2023/01/01 10:54:37;;;;;;;7.72;2.30;;;;;;;13.95;51.86;100099.03;10346258;28;20050;-58
2023/01/01 10:59:42;;;;;;;10.40;2.30;;;;;;;13.95;51.84;100107.78;10344551;28;20058;-59
2023/01/01 11:05:15;;;;;;;6.88;2.15;;;;;;;13.93;51.71;100109.69;10346743;28;20041;-59
2023/01/01 11:10:24;;;;;;;9.98;2.97;;;;;;;14.06;51.65;100102.63;10344012;28;20144;-59
2023/01/01 11:15:40;;;;;;;7.97;2.65;;;;;;;14.08;51.34;100092.81;10341884;28;20490;-58
2023/01/01 11:20:42;;;;;;;7.40;2.53;;;;;;;14.12;51.55;100082.91;10343400;28;20399;-59
2023/01/01 11:26:02;;;;;;;9.98;3.42;;;;;;;14.10;51.47;100069.88;10342157;28;20068;-59
2023/01/01 11:31:18;;;;;;;8.50;3.10;;;;;;;14.20;51.37;100067.41;10345034;28;20049;-59
2023/01/01 11:36:28;;;;;;;13.27;5.20;;;;;;;14.39;51.25;100063.34;10340515;28;20062;-59
2023/01/01 11:41:43;;;;;;;22.98;13.82;;;;;;;14.58;50.52;100068.97;10341876;28;20057;-59
2023/01/01 11:46:45;;;;;;;10.05;3.28;;;;;;;14.87;50.22;100061.53;10337574;28;20050;-59
2023/01/01 11:51:47;;;;;;;7.22;3.00;;;;;;;15.05;49.76;100054.00;10341406;28;20434;-59
2023/01/01 11:56:53;;;;;;;9.70;2.42;;;;;;;15.08;49.51;100059.06;10333388;28;20054;-59
2023/01/01 12:02:03;;;;;;;8.57;2.67;;;;;;;15.19;48.92;100077.50;10341703;28;20057;-59
2023/01/01 12:07:14;;;;;;;7.20;2.60;;;;;;;15.27;49.09;100072.50;10338640;28;20062;-59
2023/01/01 12:12:37;;;;;;;9.80;2.53;;;;;;;15.34;48.33;100073.72;10343100;28;20064;-59
2023/01/01 12:17:42;;;;;;;9.88;2.80;;;;;;;15.57;48.35;100080.69;10336017;28;20425;-59
2023/01/01 12:22:44;;;;;;;7.18;2.40;;;;;;;15.61;48.36;100068.13;10342799;28;20406;-59
2023/01/01 12:28:22;;;;;;;6.47;2.17;;;;;;;15.38;48.27;100078.63;10338124;28;20406;-58
2023/01/01 12:33:54;;;;;;;8.27;2.60;;;;;;;15.26;48.19;100081.38;10341706;28;20089;-59
2023/01/01 12:39:24;;;;;;;10.90;2.45;;;;;;;15.18;48.66;100081.97;10336488;28;20046;-59
2023/01/01 12:44:31;;;;;;;8.32;2.47;;;;;;;15.12;48.69;100078.94;10339416;28;20540;-59
2023/01/01 12:49:54;;;;;;;7.28;2.30;;;;;;;15.03;48.76;100075.22;10336061;28;20236;-59
2023/01/01 12:55:42;;;;;;;6.10;2.25;;;;;;;14.84;48.98;100074.91;10337794;28;20050;-59
2023/01/01 13:01:30;;;;;;;7.18;2.30;;;;;;;14.88;49.36;100070.28;10342208;28;20052;-59
2023/01/01 13:06:50;;;;;;;6.35;2.10;;;;;;;14.91;49.04;100056.84;10327969;28;20046;-59
2023/01/01 13:12:04;;;;;;;9.07;2.55;;;;;;;14.93;49.31;100054.94;10339941;28;20046;-59
2023/01/01 13:17:19;;;;;;;7.05;2.33;;;;;;;14.95;48.85;100066.22;10333083;28;20057;-59
2023/01/01 13:22:26;;;;;;;7.68;2.33;;;;;;;14.84;49.15;100069.63;10339590;28;20511;-59
2023/01/01 13:27:56;;;;;;;9.85;2.42;;;;;;;14.78;49.45;100066.66;10336114;28;20406;-59
2023/01/01 13:33:25;;;;;;;9.90;2.63;;;;;;;14.77;49.48;100063.19;10339863;28;20463;-59
2023/01/01 13:38:49;;;;;;;8.70;2.50;;;;;;;14.72;49.63;100064.44;10335463;28;20057;-59
2023/01/01 13:43:52;;;;;;;10.68;2.63;;;;;;;14.63;49.69;100046.72;10337809;28;20351;-59
2023/01/01 13:49:17;;;;;;;9.35;2.53;;;;;;;14.63;49.63;100052.84;10336209;28;20058;-59
2023/01/01 13:55:04;;;;;;;6.40;2.35;;;;;;;14.47;50.00;100062.78;10328828;28;20220;-59
2023/01/01 14:00:06;;;;;;;7.95;2.25;;;;;;;14.59;50.11;100054.03;10348364;28;20584;-59
2023/01/01 14:05:30;;;;;;;9.77;2.60;;;;;;;14.46;50.13;100040.88;10339380;28;20573;-59
2023/01/01 14:10:35;;;;;;;7.15;2.67;;;;;;;14.42;50.68;100043.84;10347994;28;20069;-59
2023/01/01 14:15:40;;;;;;;10.48;2.47;;;;;;;14.40;50.56;100057.13;10344986;28;20057;-59
2023/01/01 14:20:45;;;;;;;8.60;2.90;;;;;;;14.39;50.67;100063.34;10343294;28;20050;-59
2023/01/01 14:25:48;;;;;;;8.63;2.53;;;;;;;14.30;50.72;100066.66;10341728;28;20053;-59
2023/01/01 14:30:50;;;;;;;7.13;2.47;;;;;;;14.23;50.73;100060.13;10347439;28;20510;-59
2023/01/01 14:35:54;;;;;;;7.10;2.38;;;;;;;14.13;51.40;100063.53;10343273;28;20081;-59
2023/01/01 14:41:24;;;;;;;6.95;2.40;;;;;;;14.04;51.19;100072.13;10346415;28;20049;-59
2023/01/01 14:46:26;;;;;;;5.83;2.30;;;;;;;14.03;51.31;100073.03;10341390;28;20049;-59
2023/01/01 14:51:30;;;;;;;7.70;2.53;;;;;;;14.00;51.63;100068.03;10340754;28;20045;-59
2023/01/01 14:56:35;;;;;;;9.40;2.58;;;;;;;13.94;52.17;100063.19;10345183;28;20813;-59
2023/01/01 15:01:38;;;;;;;9.20;2.50;;;;;;;13.94;52.66;100071.94;10343929;28;20502;-59
2023/01/01 15:06:40;;;;;;;8.32;2.78;;;;;;;13.93;53.29;100078.13;10346578;28;20054;-59
2023/01/01 15:11:42;;;;;;;8.70;2.53;;;;;;;13.90;53.15;100073.09;10347034;28;20084;-59
2023/01/01 15:16:44;;;;;;;9.18;2.78;;;;;;;13.86;53.03;100081.31;10346193;28;20050;-59
2023/01/01 15:21:45;;;;;;;10.57;3.65;;;;;;;13.78;53.25;100082.69;10347764;28;20120;-59
2023/01/01 15:26:50;;;;;;;13.70;3.90;;;;;;;13.75;54.49;100079.44;10345225;28;20473;-59
2023/01/01 15:32:03;;;;;;;8.60;3.38;;;;;;;13.56;55.92;100081.66;10346006;28;20060;-59
2023/01/01 15:37:32;;;;;;;9.60;2.90;;;;;;;13.40;55.76;100076.59;10345225;28;20165;-59
2023/01/01 15:42:47;;;;;;;10.38;2.85;;;;;;;13.40;55.83;100057.38;10345921;28;20049;-59
2023/01/01 15:47:51;;;;;;;11.20;3.40;;;;;;;13.26;56.13;100070.59;10346547;28;20161;-59
2023/01/01 15:53:08;;;;;;;11.02;3.45;;;;;;;13.24;57.02;100062.84;10342799;28;20053;-59
2023/01/01 15:58:34;;;;;;;10.63;3.30;;;;;;;13.04;57.20;100063.38;10346047;28;20069;-59
2023/01/01 16:03:38;;;;;;;9.60;3.10;;;;;;;13.09;57.48;100069.13;10343395;28;20418;-60
2023/01/01 16:08:40;;;;;;;10.85;3.30;;;;;;;13.04;57.75;100080.91;10336136;28;20426;-59
2023/01/01 16:13:42;;;;;;;7.75;2.80;;;;;;;13.06;57.30;100076.38;10341749;28;20054;-60
2023/01/01 16:18:44;;;;;;;8.95;3.25;;;;;;;13.08;57.33;100082.38;10335862;28;20056;-59
2023/01/01 16:23:45;;;;;;;8.68;2.83;;;;;;;13.09;57.27;100084.88;10337996;28;20053;-59
2023/01/01 16:28:47;;;;;;;9.98;3.30;;;;;;;13.09;57.34;100070.94;10337817;28;20080;-59
2023/01/01 16:33:54;;;;;;;9.10;3.35;;;;;;;13.10;56.93;100064.72;10338398;28;20046;-59
2023/01/01 16:38:56;;;;;;;12.38;2.95;;;;;;;13.18;56.52;100054.53;10333480;28;20054;-59
2023/01/01 16:43:58;;;;;;;11.02;3.35;;;;;;;13.21;56.08;100042.03;10344290;28;20663;-59
2023/01/01 16:49:00;;;;;;;9.57;3.10;;;;;;;13.22;56.10;100048.97;10338562;28;20213;-59
2023/01/01 16:54:01;;;;;;;11.95;3.38;;;;;;;13.23;55.95;100049.81;10340863;28;20056;-59
2023/01/01 16:59:03;;;;;;;12.65;3.60;;;;;;;13.26;55.59;100041.72;10337770;28;20064;-59
2023/01/01 17:04:05;;;;;;;9.77;3.80;;;;;;;13.16;55.75;100051.19;10341573;28;20050;-59
2023/01/01 17:09:07;;;;;;;11.65;3.78;;;;;;;13.14;55.71;100039.94;10338211;28;20478;-60
2023/01/01 17:14:09;;;;;;;14.60;4.72;;;;;;;13.15;55.65;100028.50;10340415;28;20034;-59
2023/01/01 17:19:11;;;;;;;14.13;5.15;;;;;;;13.00;56.94;100027.75;10337211;28;20054;-59
2023/01/01 17:24:19;;;;;;;11.07;4.30;;;;;;;12.91;56.67;100026.59;10339955;28;20045;-59
2023/01/01 17:29:21;;;;;;;10.10;3.33;;;;;;;12.86;56.38;100031.31;10340114;28;20133;-60
2023/01/01 17:34:23;;;;;;;11.25;3.72;;;;;;;12.80;56.44;100018.59;10348156;28;20049;-59
2023/01/01 17:39:24;;;;;;;10.27;4.40;;;;;;;12.73;57.27;100004.22;10347411;28;20061;-60
2023/01/01 17:44:26;;;;;;;14.02;4.63;;;;;;;12.55;57.75;99992.34;10348151;28;20049;-60
2023/01/01 17:49:28;;;;;;;13.15;4.70;;;;;;;12.40;58.29;99984.63;10347773;28;20080;-59
2023/01/01 17:54:30;;;;;;;12.85;4.22;;;;;;;12.19;58.76;99991.28;10347939;28;20053;-59
2023/01/01 17:59:32;;;;;;;12.50;4.95;;;;;;;12.04;59.41;99993.09;10339263;28;20069;-60
2023/01/01 18:04:34;;;;;;;15.43;5.35;;;;;;;11.98;59.53;99988.25;10342963;28;20128;-59
2023/01/01 18:09:37;;;;;;;12.88;5.43;;;;;;;12.01;59.74;99982.81;10345971;28;20368;-60
2023/01/01 18:14:39;;;;;;;12.57;4.90;;;;;;;12.13;59.67;99998.59;10344941;28;20129;-60
2023/01/01 18:19:41;;;;;;;15.07;5.70;;;;;;;12.27;59.50;99989.84;10344461;28;20057;-59
2023/01/01 18:24:42;;;;;;;13.18;5.60;;;;;;;12.28;59.84;99986.28;10344507;28;20086;-60
2023/01/01 18:29:44;;;;;;;14.70;6.70;;;;;;;12.26;59.72;99977.66;10344320;28;20486;-60
2023/01/01 18:34:47;;;;;;;14.85;6.85;;;;;;;12.26;60.03;99971.56;10344571;28;20050;-60
2023/01/01 18:39:49;;;;;;;15.52;6.55;;;;;;;12.25;59.65;99968.13;10343468;28;20104;-60
2023/01/01 18:44:51;;;;;;;12.93;6.43;;;;;;;12.25;59.88;99960.25;10346016;28;20054;-60
2023/01/01 18:50:04;;;;;;;14.45;5.38;;;;;;;12.13;59.83;99961.03;10347556;28;20533;-61
2023/01/01 18:55:09;;;;;;;24.98;15.02;;;;;;;12.06;60.00;99957.16;10342763;28;20198;-61
2023/01/01 19:00:22;;;;;;;15.57;7.43;;;;;;;12.09;60.47;99943.81;10347523;28;20058;-61
2023/01/01 19:05:32;;;;;;;16.20;8.23;;;;;;;12.10;60.33;99935.88;10347194;28;20042;-61
2023/01/01 19:10:43;;;;;;;15.43;7.25;;;;;;;11.97;60.27;99928.91;10347413;28;20046;-61
2023/01/01 19:15:54;;;;;;;15.63;6.38;;;;;;;11.87;60.78;99923.44;10347055;28;20049;-60
2023/01/01 19:21:14;;;;;;;;;;;;;;;11.53;61.73;99929.16;10348665;28;20049;-61
2023/01/01 19:26:33;;;;;;;14.05;6.50;;;;;;;11.84;61.19;99921.03;10346986;28;20306;-60
2023/01/01 19:31:34;;;;;;;13.75;6.30;;;;;;;11.84;60.87;99923.63;10345649;28;20345;-60
2023/01/01 19:36:36;;;;;;;18.40;6.65;;;;;;;11.80;61.30;99921.31;10345019;28;20316;-61
2023/01/01 19:41:38;;;;;;;18.83;6.70;;;;;;;11.84;60.98;99926.25;10345036;28;20057;-60
2023/01/01 19:46:40;;;;;;;14.45;6.82;;;;;;;11.88;60.83;99908.56;10346027;28;20049;-60
2023/01/01 19:51:42;;;;;;;12.63;6.72;;;;;;;11.83;61.51;99906.22;10345837;28;20050;-61
2023/01/01 19:56:45;;;;;;;21.00;8.45;;;;;;;11.82;61.46;99901.09;10343923;28;20056;-60
2023/01/01 20:01:47;;;;;;;17.30;9.07;;;;;;;11.82;61.29;99894.06;10344849;28;20148;-60
2023/01/01 20:07:09;;;;;;;18.10;8.13;;;;;;;11.72;61.50;99889.53;10344702;28;20096;-61
2023/01/01 20:12:10;;;;;;;19.98;10.35;;;;;;;11.74;61.13;99888.50;10343270;28;20494;-61
2023/01/01 20:17:13;;;;;;;17.02;8.82;;;;;;;11.62;61.37;99883.22;10343995;28;20072;-60
2023/01/01 20:22:16;;;;;;;15.65;8.00;;;;;;;11.38;61.78;99867.28;10345845;28;20050;-60
2023/01/01 20:27:23;;;;;;;16.05;7.85;;;;;;;11.17;62.41;99876.50;10345350;28;20805;-60
2023/01/01 20:32:26;;;;;;;13.65;7.25;;;;;;;11.14;62.50;99867.06;10342854;28;20056;-60
2023/01/01 20:37:38;;;;;;;12.50;6.90;;;;;;;11.14;62.27;99884.53;10344009;28;20089;-60
2023/01/01 20:42:39;;;;;;;17.13;9.23;;;;;;;11.26;62.65;99884.63;10343410;28;20050;-60
2023/01/01 20:47:41;;;;;;;23.27;12.73;;;;;;;11.33;62.76;99879.84;10343306;28;20073;-60
2023/01/01 20:52:42;;;;;;;25.63;14.10;;;;;;;11.33;62.70;99885.06;10343201;28;20293;-60
2023/01/01 20:57:44;;;;;;;20.55;11.38;;;;;;;11.41;62.54;99874.09;10340981;28;20069;-60
2023/01/01 21:02:47;;;;;;;20.65;11.18;;;;;;;11.48;62.38;99862.31;10325880;28;20060;-60
2023/01/01 21:07:48;;;;;;;18.60;10.60;;;;;;;11.43;62.61;99864.38;10340295;28;20506;-60
2023/01/01 21:12:50;;;;;;;23.15;10.93;;;;;;;11.40;62.53;99854.94;10343280;28;20058;-60
2023/01/01 21:17:52;;;;;;;20.65;10.25;;;;;;;11.42;62.56;99853.03;10341847;28;20720;-60
2023/01/01 21:22:57;;;;;;;18.50;9.32;;;;;;;11.51;62.41;99843.75;10341539;28;20529;-60
2023/01/01 21:27:59;;;;;;;18.23;10.20;;;;;;;11.54;62.50;99840.97;10340681;28;20826;-60
2023/01/01 21:33:01;;;;;;;22.13;9.02;;;;;;;11.58;62.01;99839.81;10342637;28;20046;-60
2023/01/01 21:38:17;;;;;;;18.60;9.43;;;;;;;11.46;62.19;99836.19;10341519;28;20335;-60
2023/01/01 21:43:24;;;;;;;18.25;9.32;;;;;;;11.36;62.42;99835.13;10343402;28;20042;-60
2023/01/01 21:48:39;;;;;;;20.35;10.18;;;;;;;11.31;62.30;99842.44;10341629;28;20169;-60
2023/01/01 21:53:41;;;;;;;19.33;8.85;;;;;;;11.31;62.66;99842.44;10341400;28;20072;-60
2023/01/01 22:04:10;;;;;;;21.13;10.65;;;;;;;11.24;62.37;99828.91;10341438;28;20164;-60
2023/01/01 22:09:22;;;;;;;18.67;8.75;;;;;;;11.32;62.14;99829.25;10343428;28;20060;-60
2023/01/01 22:14:31;;;;;;;14.82;9.73;;;;;;;11.34;62.31;99844.03;10341318;28;20060;-60
2023/01/01 22:19:36;;;;;;;18.90;9.10;;;;;;;11.30;62.46;99838.97;10349080;28;20068;-60
2023/01/01 22:24:38;;;;;;;21.95;12.52;;;;;;;11.12;63.06;99841.91;10350100;28;20510;-60
2023/01/01 22:29:42;;;;;;;21.30;10.98;;;;;;;11.25;62.66;99819.28;10349591;28;20050;-60
2023/01/01 22:34:43;;;;;;;18.40;10.52;;;;;;;11.21;62.70;99829.06;10348303;28;20045;-60
2023/01/01 22:39:47;;;;;;;24.30;12.32;;;;;;;11.07;63.00;99836.97;10349952;28;20049;-60
2023/01/01 22:44:56;;;;;;;23.08;12.48;;;;;;;10.94;63.51;99841.28;10348976;28;20046;-60
2023/01/01 22:49:59;;;;;;;23.17;11.52;;;;;;;10.86;63.85;99827.84;10348232;28;20495;-60
2023/01/01 22:55:00;;;;;;;24.30;12.10;;;;;;;10.87;64.00;99839.97;10348798;28;20042;-60
2023/01/01 23:00:03;;;;;;;21.25;11.38;;;;;;;10.95;63.54;99848.19;10348297;28;20521;-60
2023/01/01 23:05:06;;;;;;;20.33;10.00;;;;;;;11.09;63.03;99855.22;10329250;28;20068;-60
2023/01/01 23:10:11;;;;;;;17.45;7.82;;;;;;;11.30;62.45;99838.13;10349040;28;20068;-60
2023/01/01 23:20:33;;;;;;;16.38;8.90;;;;;;;11.51;62.22;99835.91;10347372;28;20054;-60
2023/01/01 23:25:34;;;;;;;15.30;7.38;;;;;;;11.50;61.69;99829.00;10346999;28;20402;-60
2023/01/01 23:30:36;;;;;;;15.07;5.90;;;;;;;11.62;61.13;99828.19;10347537;28;20069;-60
2023/01/01 23:35:39;;;;;;;15.13;6.75;;;;;;;11.68;60.84;99818.13;10344447;28;20125;-60
2023/01/01 23:40:40;;;;;;;17.23;6.20;;;;;;;11.64;60.39;99823.69;10344407;28;20060;-60